Time;durP1;ratioP1;P1;durP2;ratioP2;P2;SDS_P1;SDS_P2;PMS_P1;PMS_P2;Temp;Humidity;BMP_temperature;BMP_pressure;BME280_temperature;BME280_humidity;BME280_pressure;Samples;Min_cycle;Max_cycle;Signal;HPM_P1;HPM_P2
2023/06/06 00:00:21;;;;;;;2.63;1.40;;;13.20;99.90;;;;;;5061707;28;20074;-77
2023/06/06 00:02:48;;;;;;;2.17;1.20;;;13.20;99.90;;;;;;5058569;28;20052;-77
2023/06/06 00:05:16;;;;;;;1.20;0.77;;;13.20;99.90;;;;;;5076400;28;20055;-77
2023/06/06 00:07:44;;;;;;;1.50;1.02;;;13.20;99.90;;;;;;5078286;28;20043;-78
2023/06/06 00:10:12;;;;;;;1.55;0.88;;;13.10;99.90;;;;;;5045409;28;20075;-77
2023/06/06 00:12:41;;;;;;;1.77;1.10;;;13.10;99.90;;;;;;5061717;28;20048;-77
2023/06/06 00:15:10;;;;;;;1.80;1.10;;;13.10;99.90;;;;;;5061881;28;20199;-77
2023/06/06 00:17:38;;;;;;;1.52;0.98;;;13.10;99.90;;;;;;5045263;28;20629;-77
2023/06/06 00:20:08;;;;;;;1.63;1.05;;;13.10;99.90;;;;;;5076660;28;20131;-77
2023/06/06 00:22:39;;;;;;;1.33;0.80;;;13.10;99.90;;;;;;5078221;28;20083;-76
2023/06/06 00:25:06;;;;;;;3.25;1.23;;;13.10;99.90;;;;;;5077746;28;20051;-76
2023/06/06 00:27:33;;;;;;;2.58;1.20;;;13.00;99.90;;;;;;5078698;28;20047;-77
2023/06/06 00:30:01;;;;;;;2.40;1.20;;;12.90;99.90;;;;;;5076025;28;20044;-77
2023/06/06 00:32:27;;;;;;;1.90;1.10;;;13.00;99.90;;;;;;5077124;28;20044;-76
2023/06/06 00:34:55;;;;;;;2.08;0.90;;;13.00;99.90;;;;;;5076545;28;20068;-76
2023/06/06 00:37:22;;;;;;;1.65;1.00;;;13.00;99.90;;;;;;5074141;28;20044;-76
2023/06/06 00:39:49;;;;;;;1.58;0.98;;;12.90;99.90;;;;;;5077975;28;20051;-76
2023/06/06 00:42:16;;;;;;;2.17;1.20;;;12.90;99.90;;;;;;5079330;28;20190;-77
2023/06/06 00:44:42;;;;;;;3.20;1.40;;;13.00;99.90;;;;;;5077626;28;20490;-78
2023/06/06 00:47:10;;;;;;;1.42;0.90;;;12.90;99.90;;;;;;5077726;28;20109;-77
2023/06/06 00:49:37;;;;;;;2.67;1.00;;;12.90;99.90;;;;;;5076660;28;20044;-79
2023/06/06 00:52:04;;;;;;;2.35;1.17;;;12.90;99.90;;;;;;5077751;28;20048;-76
2023/06/06 00:54:31;;;;;;;2.45;1.00;;;12.90;99.90;;;;;;5053140;28;20063;-78
2023/06/06 00:57:00;;;;;;;2.13;1.40;;;12.90;99.90;;;;;;5078970;28;20052;-78
2023/06/06 00:59:27;;;;;;;2.42;1.35;;;12.90;99.90;;;;;;5061886;28;20075;-77
2023/06/06 01:01:53;;;;;;;1.95;1.20;;;12.90;99.90;;;;;;5078713;28;20047;-77
2023/06/06 01:04:20;;;;;;;2.00;1.45;;;12.90;99.90;;;;;;5076534;28;20052;-77
2023/06/06 01:06:49;;;;;;;1.80;1.20;;;12.80;99.90;;;;;;5061539;28;20044;-76
2023/06/06 01:09:16;;;;;;;1.83;1.00;;;12.80;99.90;;;;;;5078219;28;20051;-76
2023/06/06 01:11:57;;;;;;;2.90;1.50;;;12.80;99.90;;;;;;5078478;28;20052;-76
2023/06/06 01:14:35;;;;;;;1.70;1.23;;;12.70;99.90;;;;;;5061467;28;20048;-77
2023/06/06 01:17:03;;;;;;;3.55;1.35;;;12.70;99.90;;;;;;5080513;28;20048;-77
2023/06/06 01:19:32;;;;;;;1.77;1.42;;;12.80;99.90;;;;;;5081432;28;20511;-78
2023/06/06 01:21:58;;;;;;;2.60;1.38;;;12.80;99.90;;;;;;5083815;28;20577;-76
2023/06/06 01:24:27;;;;;;;2.08;1.38;;;12.80;99.90;;;;;;5083806;28;20051;-77
2023/06/06 01:26:56;;;;;;;1.45;1.02;;;12.80;99.90;;;;;;5082463;28;20052;-76
2023/06/06 01:29:23;;;;;;;1.75;1.10;;;12.80;99.90;;;;;;5082445;28;20418;-76
2023/06/06 01:31:56;;;;;;;2.97;1.50;;;12.80;99.90;;;;;;5077737;28;20044;-76
2023/06/06 01:35:00;;;;;;;1.83;1.25;;;12.70;99.90;;;;;;5068248;28;20048;-76
2023/06/06 01:37:40;;;;;;;4.10;1.40;;;12.80;99.90;;;;;;4990210;28;20059;-76
2023/06/06 01:40:08;;;;;;;1.65;1.15;;;12.70;99.90;;;;;;5085742;28;20403;-76
2023/06/06 01:42:38;;;;;;;1.85;1.25;;;12.80;99.90;;;;;;5065359;28;20053;-76
2023/06/06 01:45:06;;;;;;;1.52;0.93;;;12.80;99.90;;;;;;5083668;28;20483;-76
2023/06/06 01:47:33;;;;;;;3.72;1.50;;;12.80;99.90;;;;;;5073018;28;20089;-76
2023/06/06 01:50:03;;;;;;;3.35;1.60;;;12.80;99.90;;;;;;5068772;28;20600;-77
2023/06/06 01:52:33;;;;;;;2.42;1.42;;;12.70;99.90;;;;;;5086551;28;20438;-76
2023/06/06 01:55:01;;;;;;;2.78;1.48;;;12.70;99.90;;;;;;5050338;28;20072;-76
2023/06/06 01:57:28;;;;;;;3.00;1.67;;;12.70;99.90;;;;;;5086122;28;20067;-77
2023/06/06 01:59:55;;;;;;;2.97;1.52;;;12.60;99.90;;;;;;5086104;28;20130;-76
2023/06/06 02:02:22;;;;;;;2.47;1.30;;;12.70;99.90;;;;;;5086197;28;20132;-77
2023/06/06 02:04:49;;;;;;;2.70;1.35;;;12.70;99.90;;;;;;5085932;28;20110;-77
2023/06/06 02:07:16;;;;;;;2.60;1.70;;;12.70;99.90;;;;;;5068905;28;20562;-76
2023/06/06 02:09:43;;;;;;;3.13;1.30;;;12.80;99.90;;;;;;5069406;28;20075;-76
2023/06/06 02:12:10;;;;;;;2.00;1.80;;;12.70;99.90;;;;;;5085909;28;20051;-76
2023/06/06 02:14:37;;;;;;;2.80;1.75;;;12.70;99.90;;;;;;5085650;28;20078;-76
2023/06/06 02:17:04;;;;;;;2.95;1.50;;;12.60;99.90;;;;;;5086241;28;20064;-76
2023/06/06 02:19:31;;;;;;;2.03;1.20;;;12.60;99.90;;;;;;5085105;28;20044;-77
2023/06/06 02:21:58;;;;;;;2.40;1.70;;;12.60;99.90;;;;;;5085402;28;20048;-76
2023/06/06 02:24:24;;;;;;;3.25;1.63;;;12.60;99.90;;;;;;5065317;28;20076;-76
2023/06/06 02:26:53;;;;;;;2.25;1.25;;;12.60;99.90;;;;;;5064858;28;20101;-76
2023/06/06 02:29:22;;;;;;;1.90;1.25;;;12.60;99.90;;;;;;5068496;28;20459;-77
2023/06/06 02:31:49;;;;;;;1.77;1.25;;;12.60;99.90;;;;;;5086295;28;20040;-76
2023/06/06 02:34:16;;;;;;;2.20;1.40;;;12.70;99.90;;;;;;5051165;28;20575;-76
2023/06/06 02:36:43;;;;;;;2.78;1.42;;;12.70;99.90;;;;;;5051915;28;20084;-76
2023/06/06 02:39:10;;;;;;;2.08;1.15;;;12.70;99.90;;;;;;5068797;28;20558;-75
2023/06/06 02:41:37;;;;;;;3.45;1.63;;;12.70;99.90;;;;;;5050313;28;20048;-76
2023/06/06 02:44:04;;;;;;;1.88;1.45;;;12.70;99.90;;;;;;5087146;28;20433;-77
2023/06/06 02:46:31;;;;;;;1.90;0.93;;;12.70;99.90;;;;;;5085841;28;20051;-77
2023/06/06 02:48:58;;;;;;;1.98;1.20;;;12.80;99.90;;;;;;5038379;28;20538;-77
2023/06/06 02:51:25;;;;;;;2.05;1.40;;;12.80;99.90;;;;;;5084727;28;20556;-77
2023/06/06 02:53:51;;;;;;;2.30;1.27;;;12.70;99.90;;;;;;5085705;28;20125;-78
2023/06/06 02:56:18;;;;;;;2.75;1.50;;;12.70;99.90;;;;;;5064247;28;20051;-76
2023/06/06 02:58:45;;;;;;;3.45;1.60;;;12.70;99.90;;;;;;5085693;28;20143;-76
2023/06/06 03:01:12;;;;;;;2.85;1.50;;;12.60;99.90;;;;;;5086548;28;20387;-78
2023/06/06 03:03:39;;;;;;;1.52;1.00;;;12.70;99.90;;;;;;5084419;28;20105;-76
2023/06/06 03:06:06;;;;;;;2.85;1.27;;;12.70;99.90;;;;;;5067131;28;20083;-76
2023/06/06 03:08:33;;;;;;;3.10;1.60;;;12.60;99.90;;;;;;5066465;28;20055;-77
2023/06/06 03:11:00;;;;;;;2.67;1.38;;;12.60;99.90;;;;;;5085580;28;20118;-76
2023/06/06 03:13:27;;;;;;;2.30;1.40;;;12.50;99.90;;;;;;5066507;28;20496;-76
2023/06/06 03:15:53;;;;;;;2.83;1.52;;;12.50;99.90;;;;;;5084913;28;20136;-77
2023/06/06 03:18:20;;;;;;;2.65;1.60;;;12.50;99.90;;;;;;5084324;28;20126;-76
2023/06/06 03:20:51;;;;;;;1.48;1.02;;;12.50;99.90;;;;;;5084465;28;20050;-77
2023/06/06 03:23:19;;;;;;;2.30;1.52;;;12.50;99.90;;;;;;5065052;28;20412;-76
2023/06/06 03:25:49;;;;;;;4.35;1.25;;;12.50;99.90;;;;;;5080958;28;20708;-77
2023/06/06 03:28:18;;;;;;;2.28;1.30;;;12.40;99.90;;;;;;5084628;28;20056;-77
2023/06/06 03:30:45;;;;;;;3.35;1.60;;;12.50;99.90;;;;;;5059755;28;20052;-77
2023/06/06 03:33:12;;;;;;;2.70;1.30;;;12.50;99.90;;;;;;5083918;28;20048;-76
2023/06/06 03:35:39;;;;;;;2.13;1.25;;;12.40;99.90;;;;;;5080035;28;20176;-77
2023/06/06 03:38:06;;;;;;;3.55;1.50;;;12.50;99.90;;;;;;5066504;28;20467;-76
2023/06/06 03:40:33;;;;;;;4.20;1.73;;;12.50;99.90;;;;;;5083663;28;20200;-76
2023/06/06 03:43:00;;;;;;;2.08;1.40;;;12.50;99.90;;;;;;5063915;28;20041;-76
2023/06/06 03:45:26;;;;;;;1.88;1.40;;;12.50;99.90;;;;;;5085837;28;20097;-77
2023/06/06 03:47:53;;;;;;;1.70;1.38;;;12.50;99.90;;;;;;5066381;28;20659;-77
2023/06/06 03:50:21;;;;;;;2.70;1.23;;;12.60;99.90;;;;;;5083007;28;20040;-76
2023/06/06 03:52:48;;;;;;;3.38;1.45;;;12.60;99.90;;;;;;5084585;28;20040;-77
2023/06/06 03:55:15;;;;;;;2.17;1.20;;;12.50;99.90;;;;;;5067348;28;20105;-77
2023/06/06 03:57:41;;;;;;;2.63;1.60;;;12.50;99.90;;;;;;5083902;28;20048;-76
2023/06/06 04:00:13;;;;;;;2.05;1.25;;;12.50;99.90;;;;;;5083947;28;20040;-76
2023/06/06 04:02:40;;;;;;;3.13;1.75;;;12.60;99.90;;;;;;5084973;28;20044;-76
2023/06/06 04:05:08;;;;;;;2.92;1.88;;;12.60;99.90;;;;;;5083595;28;20044;-76
2023/06/06 04:07:35;;;;;;;2.00;1.48;;;12.60;99.90;;;;;;5083670;28;20109;-76
2023/06/06 04:10:02;;;;;;;2.03;1.23;;;12.60;99.90;;;;;;5083919;28;20040;-76
2023/06/06 04:12:29;;;;;;;2.83;1.50;;;12.70;99.90;;;;;;5034161;28;20160;-76
2023/06/06 04:14:56;;;;;;;2.10;1.50;;;12.60;99.90;;;;;;5083615;28;20487;-76
2023/06/06 04:17:26;;;;;;;2.63;1.45;;;12.70;99.90;;;;;;5066213;28;20055;-77
2023/06/06 04:19:53;;;;;;;3.20;1.48;;;12.70;99.90;;;;;;5082872;28;20131;-77
2023/06/06 04:22:20;;;;;;;2.17;1.35;;;12.70;99.90;;;;;;5083572;28;20051;-77
2023/06/06 04:24:47;;;;;;;2.88;1.58;;;12.60;99.90;;;;;;5083892;28;20586;-77
2023/06/06 04:27:16;;;;;;;1.73;1.02;;;12.60;99.90;;;;;;5067312;28;20121;-77
2023/06/06 04:29:43;;;;;;;2.50;1.48;;;12.60;99.90;;;;;;5067665;28;20119;-77
2023/06/06 04:32:13;;;;;;;1.77;1.27;;;12.60;99.90;;;;;;5066681;28;20451;-76
2023/06/06 04:34:41;;;;;;;2.00;1.23;;;12.60;99.90;;;;;;5066505;28;20044;-76
2023/06/06 04:37:08;;;;;;;2.90;1.75;;;12.70;99.90;;;;;;5083058;28;20051;-76
2023/06/06 04:39:36;;;;;;;2.22;1.50;;;12.60;99.90;;;;;;5058783;28;20041;-77
2023/06/06 04:42:05;;;;;;;2.20;1.30;;;12.60;99.90;;;;;;5055442;28;20047;-77
2023/06/06 04:44:32;;;;;;;2.25;1.55;;;12.60;99.90;;;;;;5058029;28;20044;-79
2023/06/06 04:47:03;;;;;;;4.38;2.40;;;12.70;99.90;;;;;;5061782;28;20040;-78
2023/06/06 04:49:40;;;;;;;2.85;2.10;;;12.70;99.90;;;;;;5067848;28;20063;-78
2023/06/06 04:52:08;;;;;;;2.53;1.70;;;12.70;99.90;;;;;;5058485;28;20056;-79
2023/06/06 04:54:38;;;;;;;2.78;1.88;;;12.70;99.90;;;;;;5080990;28;20688;-77
2023/06/06 04:57:06;;;;;;;2.60;1.52;;;12.80;99.90;;;;;;5048772;28;20093;-77
2023/06/06 04:59:33;;;;;;;3.03;1.52;;;12.90;99.90;;;;;;5050143;28;20400;-77
2023/06/06 05:02:02;;;;;;;1.90;1.40;;;12.90;99.90;;;;;;5078661;28;20471;-78
2023/06/06 05:04:31;;;;;;;2.30;1.25;;;13.00;99.90;;;;;;5043274;28;20827;-78
2023/06/06 05:06:59;;;;;;;3.25;1.58;;;13.00;99.90;;;;;;5077718;28;20565;-78
2023/06/06 05:09:26;;;;;;;2.10;1.38;;;12.90;99.90;;;;;;5063873;28;20131;-78
2023/06/06 05:11:54;;;;;;;3.03;1.20;;;12.90;99.90;;;;;;5082817;28;20556;-78
2023/06/06 05:14:25;;;;;;;2.63;1.50;;;13.00;99.90;;;;;;5064553;28;20139;-78
2023/06/06 05:16:53;;;;;;;1.80;1.25;;;13.10;99.90;;;;;;5046803;28;20431;-78
2023/06/06 05:19:20;;;;;;;1.52;0.88;;;13.10;99.90;;;;;;5058988;28;20492;-78
2023/06/06 05:21:47;;;;;;;2.05;1.40;;;13.20;99.90;;;;;;5076575;28;20471;-78
2023/06/06 05:24:14;;;;;;;2.83;1.80;;;13.20;99.90;;;;;;5075491;28;20344;-78
2023/06/06 05:26:42;;;;;;;2.53;1.63;;;13.20;99.90;;;;;;5059866;28;20040;-78
2023/06/06 05:29:09;;;;;;;2.20;1.52;;;13.20;99.90;;;;;;5059606;28;20048;-77
2023/06/06 05:31:35;;;;;;;2.97;1.60;;;13.20;99.90;;;;;;5059101;28;20106;-78
2023/06/06 05:34:03;;;;;;;2.53;1.63;;;13.20;99.90;;;;;;5079768;28;20862;-78
2023/06/06 05:36:30;;;;;;;1.75;1.30;;;13.30;99.90;;;;;;5076658;28;20048;-78
2023/06/06 05:38:57;;;;;;;2.50;1.63;;;13.40;99.90;;;;;;5079212;28;20467;-78
2023/06/06 05:41:23;;;;;;;2.97;1.85;;;13.40;99.90;;;;;;5062968;28;20078;-78
2023/06/06 05:43:50;;;;;;;3.05;1.75;;;13.30;99.90;;;;;;5080672;28;20068;-78
2023/06/06 05:46:18;;;;;;;3.63;2.15;;;13.30;99.90;;;;;;5077917;28;20363;-78
2023/06/06 05:48:45;;;;;;;2.70;1.75;;;13.30;99.90;;;;;;5074854;28;20052;-78
2023/06/06 05:51:11;;;;;;;2.72;1.60;;;13.40;99.90;;;;;;5058845;28;20101;-77
2023/06/06 05:53:45;;;;;;;2.83;1.90;;;13.40;99.90;;;;;;5077788;28;20745;-78
2023/06/06 05:56:18;;;;;;;3.30;1.90;;;13.50;99.90;;;;;;5057859;28;20408;-78
2023/06/06 05:58:46;;;;;;;;;;;13.50;99.90;;;;;;5076855;28;20093;-78
2023/06/06 06:01:14;;;;;;;3.00;2.17;;;13.60;99.90;;;;;;5074149;28;19923;-78
2023/06/06 06:03:44;;;;;;;3.33;2.30;;;13.60;99.90;;;;;;5074305;28;20052;-78
2023/06/06 06:06:11;;;;;;;3.95;1.83;;;13.60;99.90;;;;;;5063914;28;20674;-78
2023/06/06 06:08:38;;;;;;;3.22;2.00;;;13.70;99.90;;;;;;5082190;28;20353;-78
2023/06/06 06:11:07;;;;;;;4.05;1.83;;;13.80;99.90;;;;;;5085338;28;20051;-79
2023/06/06 06:13:36;;;;;;;3.65;2.25;;;13.70;99.90;;;;;;5084512;28;20044;-78
2023/06/06 06:16:03;;;;;;;3.47;2.22;;;13.70;99.90;;;;;;5085375;28;20109;-78
2023/06/06 06:18:30;;;;;;;3.15;2.22;;;13.80;99.90;;;;;;5084505;28;20074;-79
2023/06/06 06:20:57;;;;;;;3.33;1.83;;;13.90;99.90;;;;;;5066517;28;20044;-78
2023/06/06 06:23:24;;;;;;;4.30;2.10;;;14.00;99.90;;;;;;5080451;28;20097;-79
2023/06/06 06:25:51;;;;;;;3.05;1.45;;;14.20;99.90;;;;;;5080410;28;20067;-78
2023/06/06 06:28:21;;;;;;;2.78;1.98;;;14.20;99.90;;;;;;5079965;28;20048;-77
2023/06/06 06:30:48;;;;;;;5.13;2.45;;;14.20;99.90;;;;;;5079608;28;20058;-78
2023/06/06 06:33:15;;;;;;;4.03;2.50;;;14.30;99.90;;;;;;5081682;28;20623;-78
2023/06/06 06:35:43;;;;;;;3.55;2.13;;;14.30;99.90;;;;;;5049184;28;20055;-77
2023/06/06 06:38:10;;;;;;;3.28;2.15;;;14.30;99.90;;;;;;5082976;28;20044;-76
2023/06/06 06:40:37;;;;;;;3.20;2.25;;;14.20;99.90;;;;;;5065553;28;20480;-78
2023/06/06 06:43:04;;;;;;;2.63;1.70;;;14.30;99.90;;;;;;5083238;28;20136;-76
2023/06/06 06:45:31;;;;;;;3.67;1.88;;;14.40;99.90;;;;;;5083588;28;20056;-77
2023/06/06 06:47:59;;;;;;;2.88;2.05;;;14.50;99.90;;;;;;5070903;28;20044;-76
2023/06/06 06:50:26;;;;;;;2.88;1.98;;;14.50;99.90;;;;;;5059643;28;20526;-78
2023/06/06 06:52:53;;;;;;;4.25;2.00;;;14.60;99.90;;;;;;5076041;28;20051;-78
2023/06/06 06:55:25;;;;;;;2.65;1.95;;;14.60;99.90;;;;;;5080709;28;20113;-77
2023/06/06 06:57:56;;;;;;;2.50;1.65;;;14.70;99.90;;;;;;5077553;28;20152;-76
2023/06/06 07:00:23;;;;;;;2.22;1.35;;;14.90;99.90;;;;;;5083994;28;20036;-78
2023/06/06 07:02:53;;;;;;;2.80;1.73;;;15.10;99.90;;;;;;5045557;28;20051;-76
2023/06/06 07:05:21;;;;;;;2.38;1.75;;;15.10;99.90;;;;;;5078463;28;20071;-76
2023/06/06 07:07:50;;;;;;;3.38;2.15;;;15.10;99.90;;;;;;5080985;28;20415;-76
2023/06/06 07:10:17;;;;;;;3.28;1.77;;;15.00;99.90;;;;;;5066081;28;20426;-77
2023/06/06 07:12:49;;;;;;;3.00;1.80;;;15.00;99.90;;;;;;5078991;28;20494;-76
2023/06/06 07:15:16;;;;;;;3.90;2.35;;;15.20;99.90;;;;;;5091459;28;20044;-77
2023/06/06 07:17:46;;;;;;;3.65;2.25;;;15.20;99.90;;;;;;5089039;28;20048;-77
2023/06/06 07:20:13;;;;;;;3.60;2.38;;;15.20;99.90;;;;;;5058861;28;20099;-77
2023/06/06 07:22:40;;;;;;;3.33;1.70;;;15.20;99.90;;;;;;5074188;28;20120;-77
2023/06/06 07:25:08;;;;;;;3.53;1.90;;;15.10;99.90;;;;;;5078290;28;20071;-76
2023/06/06 07:27:36;;;;;;;3.17;2.20;;;15.30;99.90;;;;;;5077602;28;20413;-76
2023/06/06 07:30:16;;;;;;;2.40;1.55;;;15.40;99.90;;;;;;5059697;28;20054;-79
2023/06/06 07:32:45;;;;;;;3.45;1.75;;;15.50;99.90;;;;;;5082889;28;20637;-78
2023/06/06 07:35:14;;;;;;;3.45;1.52;;;15.60;99.90;;;;;;5079121;28;20040;-78
2023/06/06 07:37:41;;;;;;;3.05;1.60;;;15.50;99.90;;;;;;5083020;28;20055;-76
2023/06/06 07:40:10;;;;;;;2.28;1.40;;;15.60;99.90;;;;;;5084837;28;20044;-77
2023/06/06 07:42:38;;;;;;;4.47;1.85;;;15.80;99.90;;;;;;5069781;28;20078;-76
2023/06/06 07:45:05;;;;;;;2.58;1.77;;;16.00;99.90;;;;;;5064955;28;20065;-77
2023/06/06 07:47:32;;;;;;;4.50;2.28;;;15.90;99.90;;;;;;5083608;28;20436;-77
2023/06/06 07:49:58;;;;;;;3.85;1.50;;;15.90;99.90;;;;;;5082291;28;20048;-77
2023/06/06 07:52:25;;;;;;;4.35;2.00;;;15.90;99.90;;;;;;5082277;28;20388;-77
2023/06/06 07:54:52;;;;;;;3.08;1.67;;;15.80;99.90;;;;;;5061450;28;20052;-78
2023/06/06 07:57:19;;;;;;;2.63;1.50;;;15.80;99.90;;;;;;5077965;28;20561;-76
2023/06/06 07:59:46;;;;;;;2.28;1.50;;;15.90;99.90;;;;;;5082872;28;20797;-77
2023/06/06 08:02:14;;;;;;;3.22;1.63;;;16.00;99.90;;;;;;5069006;28;20075;-76
2023/06/06 08:04:42;;;;;;;2.08;1.33;;;16.10;99.90;;;;;;5080388;28;20646;-77
2023/06/06 08:07:09;;;;;;;2.72;1.83;;;16.30;99.90;;;;;;5063311;28;20564;-77
2023/06/06 08:09:37;;;;;;;3.42;1.92;;;16.20;99.90;;;;;;5079336;28;20052;-76
2023/06/06 08:12:05;;;;;;;2.80;1.65;;;16.10;99.90;;;;;;5078306;28;20368;-77
2023/06/06 08:14:34;;;;;;;2.72;1.63;;;16.20;99.90;;;;;;5078133;28;20121;-76
2023/06/06 08:17:05;;;;;;;2.58;1.38;;;16.40;99.90;;;;;;5065426;28;20062;-77
2023/06/06 08:19:32;;;;;;;2.08;1.50;;;16.50;99.70;;;;;;5078650;28;20053;-76
2023/06/06 08:22:01;;;;;;;3.08;1.58;;;16.50;99.40;;;;;;5056601;28;20047;-76
2023/06/06 08:24:28;;;;;;;1.77;1.48;;;16.50;99.40;;;;;;5079369;28;20048;-76
2023/06/06 08:26:56;;;;;;;2.35;1.40;;;16.60;99.00;;;;;;5077808;28;20047;-76
2023/06/06 08:29:22;;;;;;;2.08;1.23;;;16.60;99.10;;;;;;5079221;28;20071;-76
2023/06/06 08:31:50;;;;;;;3.83;1.95;;;16.70;99.40;;;;;;5077638;28;20048;-77
2023/06/06 08:34:17;;;;;;;3.13;2.30;;;16.70;99.50;;;;;;5079891;28;20074;-77
2023/06/06 08:36:44;;;;;;;3.47;1.88;;;16.40;99.80;;;;;;5070665;28;20059;-77
2023/06/06 08:39:11;;;;;;;4.65;2.03;;;16.40;99.90;;;;;;5075853;28;20927;-77
2023/06/06 08:41:38;;;;;;;2.60;1.60;;;16.50;99.90;;;;;;5078780;28;20143;-77
2023/06/06 08:44:05;;;;;;;2.40;1.65;;;16.60;99.90;;;;;;5062567;28;20127;-77
2023/06/06 08:46:33;;;;;;;3.65;1.70;;;16.80;99.40;;;;;;5084346;28;20052;-77
2023/06/06 08:49:06;;;;;;;4.20;2.35;;;16.80;99.30;;;;;;5060592;28;20048;-77
2023/06/06 08:51:33;;;;;;;3.20;1.60;;;16.70;98.90;;;;;;5081230;28;20044;-77
2023/06/06 08:54:00;;;;;;;3.97;1.90;;;16.60;99.30;;;;;;5084215;28;20133;-77
2023/06/06 08:56:27;;;;;;;7.75;3.50;;;16.60;99.90;;;;;;5084932;28;20056;-77
2023/06/06 08:58:54;;;;;;;6.07;4.00;;;16.40;99.90;;;;;;5079012;28;20052;-77
2023/06/06 09:01:21;;;;;;;3.67;2.88;;;16.50;99.90;;;;;;5084676;28;20052;-76
2023/06/06 09:03:52;;;;;;;4.32;2.60;;;16.60;99.90;;;;;;5077712;28;20059;-79
2023/06/06 09:06:22;;;;;;;4.13;2.53;;;16.50;99.90;;;;;;5079538;28;20134;-77
2023/06/06 09:08:49;;;;;;;3.33;1.95;;;16.20;99.90;;;;;;5079328;28;20134;-78
2023/06/06 09:11:17;;;;;;;2.80;2.08;;;16.10;99.90;;;;;;5059958;28;20051;-77
2023/06/06 09:13:45;;;;;;;4.25;2.33;;;16.00;99.90;;;;;;5078668;28;20105;-77
2023/06/06 09:16:14;;;;;;;3.83;1.60;;;16.00;99.90;;;;;;5079677;28;20060;-78
2023/06/06 09:18:41;;;;;;;2.50;1.75;;;16.20;99.90;;;;;;5065360;28;20083;-77
2023/06/06 09:21:08;;;;;;;2.17;1.50;;;16.50;99.90;;;;;;5072070;28;20078;-77
2023/06/06 09:23:35;;;;;;;2.90;1.70;;;16.70;99.90;;;;;;5074661;28;20195;-78
2023/06/06 09:26:03;;;;;;;3.75;1.83;;;16.90;99.90;;;;;;5076263;28;20107;-77
2023/06/06 09:28:37;;;;;;;3.55;1.33;;;16.80;99.90;;;;;;5065945;28;20056;-77
2023/06/06 09:31:30;;;;;;;1.83;1.38;;;16.90;99.90;;;;;;5058531;28;20131;-77
2023/06/06 09:33:58;;;;;;;2.45;1.23;;;17.10;99.70;;;;;;5058987;28;20056;-78
2023/06/06 09:36:29;;;;;;;2.33;1.30;;;17.20;99.30;;;;;;5058059;28;20085;-78
2023/06/06 09:39:04;;;;;;;3.63;1.90;;;17.30;99.30;;;;;;5081016;28;20048;-78
2023/06/06 09:41:38;;;;;;;2.58;1.50;;;17.10;99.20;;;;;;5081203;28;20767;-77
2023/06/06 09:44:05;;;;;;;4.38;1.60;;;16.80;99.50;;;;;;5062719;28;20056;-78
2023/06/06 09:46:36;;;;;;;2.08;1.30;;;16.70;99.80;;;;;;5057654;28;20058;-78
2023/06/06 09:49:03;;;;;;;4.80;2.22;;;16.70;99.90;;;;;;5079572;28;20193;-79
2023/06/06 09:51:33;;;;;;;3.75;1.95;;;16.50;99.90;;;;;;5077171;28;20040;-79
2023/06/06 09:54:01;;;;;;;4.15;1.73;;;16.40;99.90;;;;;;5079129;28;20101;-78
2023/06/06 09:56:29;;;;;;;1.95;1.30;;;16.40;99.90;;;;;;5077973;28;20118;-78
2023/06/06 09:58:56;;;;;;;2.15;1.40;;;16.60;99.90;;;;;;5076724;28;20052;-76
2023/06/06 10:01:30;;;;;;;2.22;1.45;;;16.80;99.90;;;;;;5062374;28;20399;-77
2023/06/06 10:03:57;;;;;;;2.97;1.27;;;17.00;99.80;;;;;;5073661;28;20102;-78
2023/06/06 10:06:26;;;;;;;1.90;1.20;;;17.20;99.60;;;;;;5075793;28;20048;-76
2023/06/06 10:08:56;;;;;;;5.47;2.05;;;17.10;99.90;;;;;;5075467;28;20059;-78
2023/06/06 10:11:24;;;;;;;2.00;1.58;;;16.60;99.90;;;;;;5078082;28;20132;-77
2023/06/06 10:13:51;;;;;;;2.65;1.52;;;16.50;99.90;;;;;;5078072;28;20054;-79
2023/06/06 10:16:19;;;;;;;2.42;1.50;;;16.40;99.90;;;;;;5055462;28;20053;-77
2023/06/06 10:18:46;;;;;;;2.67;1.50;;;16.20;99.90;;;;;;5075049;28;20152;-78
2023/06/06 10:21:16;;;;;;;2.35;1.15;;;16.30;99.90;;;;;;5077500;28;20036;-79
2023/06/06 10:23:44;;;;;;;2.72;1.80;;;16.50;99.90;;;;;;5077951;28;20063;-77
2023/06/06 10:26:37;;;;;;;2.42;1.17;;;16.80;99.90;;;;;;5078047;28;20048;-76
2023/06/06 10:29:14;;;;;;;2.33;1.38;;;17.40;99.80;;;;;;5073776;28;20052;-76
2023/06/06 10:31:54;;;;;;;3.17;1.63;;;17.80;99.20;;;;;;5074696;28;20197;-80
2023/06/06 10:34:27;;;;;;;2.83;1.75;;;17.70;98.30;;;;;;5057274;28;20159;-79
2023/06/06 10:36:57;;;;;;;2.53;1.58;;;17.70;98.50;;;;;;5078330;28;20069;-81
2023/06/06 10:39:25;;;;;;;3.17;1.88;;;17.50;98.80;;;;;;5078223;28;20555;-81
2023/06/06 10:41:57;;;;;;;2.53;1.85;;;17.30;99.20;;;;;;5072802;28;20047;-78
2023/06/06 10:44:35;;;;;;;;;;;17.00;99.30;;;;;;5081252;28;20507;-79
2023/06/06 10:47:21;;;;;;;2.00;1.50;;;16.90;99.60;;;;;;5090482;28;19934;-80
2023/06/06 10:50:15;;;;;;;1.60;1.20;;;16.80;99.70;;;;;;5077433;28;20121;-79
2023/06/06 10:52:51;;;;;;;1.33;1.20;;;16.80;99.80;;;;;;5073061;28;20039;-80
2023/06/06 10:55:24;;;;;;;2.05;1.40;;;16.80;99.90;;;;;;5078048;28;20698;-79
2023/06/06 10:58:03;;;;;;;2.63;1.35;;;17.00;99.90;;;;;;5073964;28;20044;-80
2023/06/06 11:00:40;;;;;;;2.50;1.35;;;17.30;99.80;;;;;;5079053;28;20043;-78
2023/06/06 11:03:08;;;;;;;3.10;1.80;;;17.30;99.60;;;;;;5075523;28;20651;-79
2023/06/06 11:06:00;;;;;;;2.72;1.70;;;17.20;99.70;;;;;;5076599;28;20534;-78
2023/06/06 11:08:41;;;;;;;1.80;1.48;;;17.20;99.70;;;;;;5079296;28;20052;-75
2023/06/06 11:11:30;;;;;;;2.05;1.38;;;17.40;99.70;;;;;;5079998;28;20116;-79
2023/06/06 11:13:58;;;;;;;4.28;2.03;;;17.40;99.40;;;;;;5072880;28;20054;-79
2023/06/06 11:16:35;;;;;;;2.60;1.70;;;17.20;99.80;;;;;;5076435;28;20074;-79
2023/06/06 11:19:02;;;;;;;1.92;1.40;;;17.20;99.90;;;;;;5082625;28;20106;-79
2023/06/06 11:21:30;;;;;;;2.38;1.63;;;17.50;99.80;;;;;;5077948;28;20052;-78
2023/06/06 11:23:58;;;;;;;2.50;1.60;;;17.90;99.10;;;;;;5079543;28;20056;-79
2023/06/06 11:26:27;;;;;;;3.13;1.40;;;18.30;98.90;;;;;;5079602;28;20040;-81
2023/06/06 11:28:57;;;;;;;2.67;1.50;;;18.80;98.60;;;;;;5079239;28;20495;-79
2023/06/06 11:31:25;;;;;;;2.13;1.52;;;18.70;97.70;;;;;;5063758;28;20071;-77
2023/06/06 11:33:52;;;;;;;2.25;1.65;;;18.60;96.60;;;;;;5079513;28;20432;-78
2023/06/06 11:36:19;;;;;;;2.50;1.80;;;18.70;96.70;;;;;;5082190;28;20051;-77
2023/06/06 11:38:46;;;;;;;3.97;1.80;;;18.70;97.10;;;;;;5066490;28;20188;-77
2023/06/06 11:41:13;;;;;;;2.97;1.50;;;18.60;97.00;;;;;;5080925;28;20048;-77
2023/06/06 11:43:49;;;;;;;2.83;1.50;;;18.70;97.10;;;;;;5055954;28;20048;-77
2023/06/06 11:46:17;;;;;;;2.40;1.55;;;18.80;97.10;;;;;;5077507;28;20051;-77
2023/06/06 11:48:44;;;;;;;4.90;2.15;;;18.80;96.70;;;;;;5080743;28;20464;-77
2023/06/06 11:51:15;;;;;;;3.33;1.77;;;18.60;96.80;;;;;;5083165;28;20039;-78
2023/06/06 11:53:41;;;;;;;3.00;2.00;;;18.30;97.10;;;;;;5060483;28;20048;-77
2023/06/06 11:56:15;;;;;;;3.65;1.70;;;18.40;97.50;;;;;;5077597;28;20044;-78
2023/06/06 11:58:42;;;;;;;1.85;1.38;;;18.70;97.10;;;;;;5079133;28;20051;-77
2023/06/06 12:01:10;;;;;;;3.50;1.50;;;18.80;97.10;;;;;;5084539;28;21691;-77
2023/06/06 12:03:38;;;;;;;1.90;1.23;;;19.00;96.80;;;;;;5076416;28;20044;-77
2023/06/06 12:06:06;;;;;;;3.42;1.77;;;19.20;96.70;;;;;;5063440;28;20506;-77
2023/06/06 12:08:33;;;;;;;2.88;1.60;;;19.10;96.30;;;;;;5081903;28;20977;-79
2023/06/06 12:11:20;;;;;;;2.58;1.60;;;19.00;96.30;;;;;;5081725;28;20062;-80
2023/06/06 12:13:47;;;;;;;1.95;1.30;;;19.10;96.50;;;;;;5082559;28;20502;-80
2023/06/06 12:16:28;;;;;;;3.55;1.58;;;19.30;96.30;;;;;;5081793;28;20059;-81
2023/06/06 12:18:55;;;;;;;2.95;1.60;;;19.00;96.40;;;;;;5080544;28;20467;-80
2023/06/06 12:21:22;;;;;;;2.83;1.73;;;18.90;96.80;;;;;;5062265;28;20321;-80
2023/06/06 12:23:49;;;;;;;2.63;1.40;;;18.80;96.50;;;;;;5079280;28;20307;-81
2023/06/06 12:26:16;;;;;;;1.85;1.17;;;19.10;97.00;;;;;;5058317;28;20051;-80
2023/06/06 12:28:54;;;;;;;1.38;1.25;;;19.40;96.40;;;;;;5062191;28;21310;-81
2023/06/06 12:31:21;;;;;;;1.85;1.30;;;19.70;95.80;;;;;;5075340;28;20059;-81
2023/06/06 12:33:48;;;;;;;2.05;1.33;;;19.80;95.80;;;;;;5073756;28;20048;-80
2023/06/06 12:36:19;;;;;;;1.45;1.15;;;19.70;95.40;;;;;;5076577;28;20078;-82
2023/06/06 12:39:08;;;;;;;2.22;1.48;;;19.70;95.80;;;;;;5061749;28;20380;-81
2023/06/06 12:41:41;;;;;;;1.85;1.30;;;19.80;95.40;;;;;;5077262;28;20052;-80
2023/06/06 12:44:11;;;;;;;2.38;1.35;;;20.00;95.40;;;;;;5080244;28;20686;-80
2023/06/06 12:46:42;;;;;;;1.65;1.25;;;20.10;95.00;;;;;;5081596;28;20084;-81
2023/06/06 12:49:09;;;;;;;3.50;1.52;;;20.10;94.90;;;;;;5080278;28;20044;-81
2023/06/06 12:51:38;;;;;;;2.08;1.20;;;20.20;95.00;;;;;;5063119;28;20043;-80
2023/06/06 12:54:05;;;;;;;2.88;1.55;;;20.60;94.70;;;;;;5078821;28;20116;-81
2023/06/06 12:56:32;;;;;;;2.08;1.42;;;20.60;94.60;;;;;;5081082;28;20059;-80